createdAt,value
2019-04-07T00:01:52.694Z,35.15
2019-04-07T00:06:58.829Z,32.20
2019-04-07T00:12:04.484Z,32.42
2019-04-07T00:17:10.525Z,33.58
2019-04-07T00:22:16.299Z,33.78
2019-04-07T00:27:22.360Z,33.88
2019-04-07T00:32:28.586Z,33.88
2019-04-07T00:37:34.337Z,33.75
2019-04-07T00:42:40.244Z,33.42
2019-04-07T00:47:46.136Z,35.10
2019-04-07T00:52:52.525Z,33.33
2019-04-07T00:57:59.456Z,35.05
2019-04-07T01:03:05.396Z,34.23
2019-04-07T01:08:11.719Z,33.30
2019-04-07T01:13:17.639Z,33.65
2019-04-07T01:18:26.814Z,31.45
2019-04-07T01:23:32.522Z,33.42
2019-04-07T01:28:38.103Z,28.75
2019-04-07T01:33:44.267Z,29.95
2019-04-07T01:38:50.240Z,28.77
2019-04-07T01:44:13.434Z,25.77
2019-04-07T01:49:23.811Z,26.27
2019-04-07T01:54:33.919Z,25.35
2019-04-07T01:59:41.077Z,23.92
2019-04-07T02:04:58.063Z,24.00
2019-04-07T02:10:09.752Z,22.77
2019-04-07T02:15:32.977Z,23.65
2019-04-07T02:20:52.198Z,22.93
2019-04-07T02:26:15.694Z,24.02
2019-04-07T02:31:23.860Z,22.32
2019-04-07T02:36:37.673Z,22.73
2019-04-07T02:41:45.082Z,22.48
2019-04-07T02:46:52.181Z,26.48
2019-04-07T02:52:18.530Z,24.20
2019-04-07T02:57:32.007Z,24.98
2019-04-07T03:02:39.423Z,23.57
2019-04-07T03:07:50.454Z,23.85
2019-04-07T03:12:58.877Z,23.38
2019-04-07T03:18:24.139Z,24.02
2019-04-07T03:23:30.532Z,23.70
2019-04-07T03:28:52.781Z,23.83
2019-04-07T03:34:20.773Z,23.57
2019-04-07T03:39:34.459Z,23.15
2019-04-07T03:44:41.610Z,23.77
2019-04-07T03:49:51.691Z,24.23
2019-04-07T03:55:02.266Z,24.43
2019-04-07T04:00:15.490Z,24.75
2019-04-07T04:05:41.395Z,24.50
2019-04-07T04:10:48.686Z,26.85
2019-04-07T04:15:58.942Z,24.92
2019-04-07T04:21:04.639Z,23.92
2019-04-07T04:26:10.263Z,24.95
2019-04-07T04:31:15.883Z,24.98
2019-04-07T04:36:22.169Z,27.32
2019-04-07T04:41:27.843Z,25.55
2019-04-07T04:46:34.415Z,25.10
2019-04-07T04:51:40.981Z,25.92
2019-04-07T04:56:46.959Z,24.82
2019-04-07T05:01:53.153Z,24.98
2019-04-07T05:06:59.487Z,23.98
2019-04-07T05:12:06.126Z,23.62
2019-04-07T05:17:12.665Z,23.32
2019-04-07T05:22:18.217Z,23.87
2019-04-07T05:27:23.941Z,23.25
2019-04-07T05:32:29.591Z,21.82
2019-04-07T05:37:35.416Z,20.62
2019-04-07T05:42:41.217Z,21.52
2019-04-07T05:47:48.677Z,19.95
2019-04-07T05:52:54.039Z,20.65
2019-04-07T05:58:03.440Z,20.10
2019-04-07T06:03:08.440Z,24.57
2019-04-07T06:08:24.772Z,19.73
2019-04-07T06:13:22.517Z,18.75
2019-04-07T06:18:31.935Z,22.82
2019-04-07T06:23:36.424Z,19.50
2019-04-07T06:28:42.023Z,17.77
2019-04-07T06:33:47.948Z,17.70
2019-04-07T06:38:53.720Z,18.30
2019-04-07T06:44:10.508Z,17.52
2019-04-07T06:49:12.349Z,17.48
2019-04-07T06:54:23.228Z,19.75
2019-04-07T06:59:33.142Z,17.65
2019-04-07T07:04:43.568Z,19.00
2019-04-07T07:09:49.140Z,20.45
2019-04-07T07:14:58.269Z,18.50
2019-04-07T07:20:27.605Z,24.43
2019-04-07T07:25:32.444Z,24.05
2019-04-07T07:30:40.445Z,22.17
2019-04-07T07:35:49.089Z,20.52
2019-04-07T07:40:53.482Z,19.57
2019-04-07T07:45:59.334Z,19.75
2019-04-07T07:51:08.108Z,19.45
2019-04-07T07:56:14.301Z,18.75
2019-04-07T08:01:20.029Z,17.90
2019-04-07T08:06:26.272Z,18.27
2019-04-07T08:11:34.405Z,17.80
2019-04-07T08:16:40.096Z,17.77
2019-04-07T08:21:50.305Z,18.37
2019-04-07T08:26:56.464Z,17.42
2019-04-07T08:32:03.230Z,17.92
2019-04-07T08:37:09.517Z,18.65
2019-04-07T08:42:18.617Z,19.12
2019-04-07T08:47:23.443Z,19.05
2019-04-07T08:52:29.118Z,17.45
2019-04-07T08:57:35.743Z,22.45
2019-04-07T09:02:41.656Z,19.55
2019-04-07T09:07:47.218Z,17.65
2019-04-07T09:12:52.769Z,17.23
2019-04-07T09:18:01.529Z,18.10
2019-04-07T09:23:12.418Z,17.98
2019-04-07T09:28:40.337Z,18.23
2019-04-07T09:33:50.678Z,18.42
2019-04-07T09:39:04.225Z,18.25
2019-04-07T09:44:11.526Z,16.67
2019-04-07T09:49:23.551Z,16.85
2019-04-07T09:54:36.168Z,17.15
2019-04-07T10:00:00.455Z,16.48
2019-04-07T10:05:24.945Z,17.32
2019-04-07T10:10:35.068Z,20.90
2019-04-07T10:15:43.125Z,20.15
2019-04-07T10:20:50.361Z,21.62
2019-04-07T10:26:00.581Z,17.65
2019-04-07T10:31:08.341Z,17.40
2019-04-07T10:36:19.465Z,16.82
2019-04-07T10:41:43.147Z,19.30
2019-04-07T10:47:02.413Z,16.32
2019-04-07T10:52:26.054Z,17.67
2019-04-07T10:57:33.436Z,18.20
2019-04-07T11:02:58.658Z,22.32
2019-04-07T11:08:14.978Z,17.87
2019-04-07T11:13:24.667Z,17.48
2019-04-07T11:18:47.718Z,18.67
2019-04-07T11:24:06.890Z,16.95
2019-04-07T11:29:16.653Z,19.00
2019-04-07T11:34:24.731Z,17.75
2019-04-07T11:39:32.651Z,18.50
2019-04-07T11:44:51.809Z,18.62
2019-04-07T11:50:15.349Z,18.40
2019-04-07T11:55:30.057Z,17.35
2019-04-07T12:00:53.917Z,18.52
2019-04-07T12:06:18.129Z,29.85
2019-04-07T12:11:25.930Z,17.57
2019-04-07T12:16:39.149Z,45.90
2019-04-07T12:21:46.800Z,18.12
2019-04-07T12:27:06.744Z,17.45
2019-04-07T12:32:13.836Z,18.32
2019-04-07T12:37:39.235Z,17.75
2019-04-07T12:42:51.306Z,18.27
2019-04-07T12:48:14.565Z,18.60
2019-04-07T12:53:40.057Z,18.77
2019-04-07T12:59:05.579Z,18.92
2019-04-07T13:04:29.925Z,18.65
2019-04-07T13:09:40.640Z,18.42
2019-04-07T13:14:47.882Z,19.48
2019-04-07T13:20:11.942Z,19.12
2019-04-07T13:25:29.958Z,19.50
2019-04-07T13:30:54.881Z,18.42
2019-04-07T13:36:02.132Z,22.17
2019-04-07T13:41:09.434Z,20.35
2019-04-07T13:46:31.823Z,19.23
2019-04-07T13:51:49.512Z,19.48
2019-04-07T13:57:11.945Z,20.12
2019-04-07T14:02:35.595Z,19.75
2019-04-07T14:07:42.824Z,19.95
2019-04-07T14:13:06.331Z,20.25
2019-04-07T14:18:16.658Z,20.82
2019-04-07T14:23:24.066Z,20.65
2019-04-07T14:28:50.089Z,20.60
2019-04-07T14:34:14.018Z,19.80
2019-04-07T14:39:37.276Z,22.27
2019-04-07T14:44:47.439Z,21.20
2019-04-07T14:49:58.927Z,20.57
2019-04-07T14:55:10.896Z,20.68
2019-04-07T15:00:34.017Z,20.77
2019-04-07T15:05:49.477Z,19.85
2019-04-07T15:10:56.656Z,21.23
2019-04-07T15:16:03.934Z,20.82
2019-04-07T15:21:09.907Z,21.95
2019-04-07T15:26:16.707Z,20.77
2019-04-07T15:31:23.160Z,21.27
2019-04-07T15:36:28.937Z,19.60
2019-04-07T15:41:34.643Z,19.92
2019-04-07T15:46:40.256Z,20.23
2019-04-07T15:51:45.785Z,23.55
2019-04-07T15:56:51.583Z,19.45
2019-04-07T16:01:57.341Z,19.98
2019-04-07T16:07:03.079Z,21.15
2019-04-07T16:12:10.006Z,20.27
2019-04-07T16:17:15.884Z,19.77
2019-04-07T16:22:21.448Z,21.48
2019-04-07T16:27:27.185Z,21.02
2019-04-07T16:32:33.859Z,20.97
2019-04-07T16:37:40.273Z,20.90
2019-04-07T16:43:02.656Z,21.17
2019-04-07T16:47:54.225Z,22.82
2019-04-07T16:53:03.033Z,21.48
2019-04-07T16:58:08.436Z,25.17
2019-04-07T17:03:15.274Z,25.35
2019-04-07T17:08:22.513Z,21.97
2019-04-07T17:13:38.137Z,22.45
2019-04-07T17:18:39.581Z,21.15
2019-04-07T17:23:45.636Z,22.87
2019-04-07T17:28:51.224Z,21.35
2019-04-07T17:33:56.858Z,20.20
2019-04-07T17:39:09.312Z,23.10
2019-04-07T17:44:22.086Z,20.23
2019-04-07T17:49:42.762Z,20.85
2019-04-07T17:54:58.990Z,21.55
2019-04-07T18:00:18.001Z,22.15
2019-04-07T18:05:38.713Z,21.93
2019-04-07T18:11:01.085Z,21.82
2019-04-07T18:16:25.544Z,21.95
2019-04-07T18:21:36.629Z,21.15
2019-04-07T18:26:45.256Z,21.68
2019-04-07T18:31:58.492Z,21.17
2019-04-07T18:37:13.653Z,22.07
2019-04-07T18:42:36.823Z,22.37
2019-04-07T18:48:00.132Z,21.82
2019-04-07T18:53:07.492Z,22.87
2019-04-07T18:58:31.174Z,23.80
2019-04-07T19:03:54.915Z,23.12
2019-04-07T19:09:02.133Z,23.65
2019-04-07T19:14:40.213Z,23.98
2019-04-07T19:19:37.521Z,23.00
2019-04-07T19:24:47.601Z,24.05
2019-04-07T19:30:13.859Z,23.12
2019-04-07T19:35:19.344Z,24.63
2019-04-07T19:40:38.736Z,23.62
2019-04-07T19:45:55.275Z,26.10
2019-04-07T19:51:03.185Z,23.75
2019-04-07T19:56:19.421Z,24.02
2019-04-07T20:01:29.222Z,24.43
2019-04-07T20:06:36.558Z,25.60
2019-04-07T20:11:49.897Z,25.23
2019-04-07T20:17:16.443Z,25.25
2019-04-07T20:22:24.055Z,23.70
2019-04-07T20:27:34.332Z,24.85
2019-04-07T20:32:47.193Z,24.47
2019-04-07T20:38:10.614Z,25.15
2019-04-07T20:43:35.098Z,24.72
2019-04-07T20:48:59.259Z,25.40
2019-04-07T20:54:07.581Z,25.75
2019-04-07T20:59:14.812Z,27.98
2019-04-07T21:04:39.573Z,28.15
2019-04-07T21:09:48.109Z,26.35
2019-04-07T21:15:21.125Z,27.80
2019-04-07T21:20:29.964Z,27.22
2019-04-07T21:25:51.678Z,26.17
2019-04-07T21:31:18.605Z,26.93
2019-04-07T21:36:28.211Z,26.20
2019-04-07T21:41:44.430Z,26.48
2019-04-07T21:47:06.468Z,24.95
2019-04-07T21:52:19.493Z,25.40
2019-04-07T21:57:30.612Z,26.85
2019-04-07T22:02:47.873Z,30.00
2019-04-07T22:08:16.996Z,26.85
2019-04-07T22:13:18.255Z,33.55
2019-04-07T22:18:23.976Z,28.60
2019-04-07T22:23:31.430Z,28.02
2019-04-07T22:28:37.285Z,28.32
2019-04-07T22:33:42.997Z,27.65
2019-04-07T22:38:51.688Z,27.05
2019-04-07T22:43:56.053Z,27.65
2019-04-07T22:49:01.739Z,27.85
2019-04-07T22:54:07.910Z,27.45
2019-04-07T22:59:13.595Z,28.73
2019-04-07T23:04:19.175Z,27.45
2019-04-07T23:09:25.901Z,28.52
2019-04-07T23:14:31.740Z,26.57
2019-04-07T23:19:37.882Z,27.95
2019-04-07T23:24:43.615Z,27.90
2019-04-07T23:29:49.294Z,30.68
2019-04-07T23:34:55.479Z,46.77
2019-04-07T23:40:02.413Z,34.90
2019-04-07T23:45:08.576Z,40.50
2019-04-07T23:50:15.516Z,42.10
2019-04-07T23:55:21.854Z,37.88
